createdAt,value
2023-05-08T00:00:48.389Z,16.60
2023-05-08T00:03:15.229Z,15.05
2023-05-08T00:05:42.171Z,14.80
2023-05-08T00:08:08.885Z,14.25
2023-05-08T00:10:35.644Z,13.73
2023-05-08T00:13:02.452Z,13.85
2023-05-08T00:15:29.116Z,13.07
2023-05-08T00:17:55.798Z,11.82
2023-05-08T00:20:22.673Z,11.13
2023-05-08T00:22:49.326Z,10.80
2023-05-08T00:25:16.158Z,11.73
2023-05-08T00:27:43.031Z,12.25
2023-05-08T00:30:10.303Z,13.07
2023-05-08T00:32:37.190Z,12.85
2023-05-08T00:35:04.138Z,12.52
2023-05-08T00:37:30.929Z,13.23
2023-05-08T00:39:57.645Z,12.15
2023-05-08T00:42:24.309Z,11.23
2023-05-08T00:44:51.115Z,11.55
2023-05-08T00:47:17.877Z,11.82
2023-05-08T00:49:45.011Z,9.65
2023-05-08T00:52:12.288Z,8.55
2023-05-08T00:54:39.532Z,9.35
2023-05-08T00:57:07.495Z,8.77
2023-05-08T00:59:36.004Z,7.88
2023-05-08T01:02:03.391Z,7.80
2023-05-08T01:04:31.755Z,8.23
2023-05-08T01:06:58.635Z,7.43
2023-05-08T01:09:25.455Z,8.32
2023-05-08T01:12:15.302Z,7.88
2023-05-08T01:15:17.309Z,7.30
2023-05-08T01:18:02.988Z,8.32
2023-05-08T01:21:07.840Z,7.72
2023-05-08T01:24:28.740Z,8.00
2023-05-08T01:27:19.156Z,7.38
2023-05-08T01:30:13.543Z,7.65
2023-05-08T01:32:43.533Z,7.40
2023-05-08T01:35:21.022Z,7.28
2023-05-08T01:37:56.611Z,7.70
2023-05-08T01:40:53.614Z,8.45
2023-05-08T01:43:50.289Z,8.63
2023-05-08T01:46:25.353Z,14.35
2023-05-08T01:49:00.375Z,10.45
2023-05-08T01:51:28.997Z,8.20
2023-05-08T01:54:04.161Z,9.00
2023-05-08T01:56:31.789Z,8.30
2023-05-08T01:59:00.558Z,8.20
2023-05-08T02:01:29.416Z,8.18
2023-05-08T02:03:57.580Z,8.00
2023-05-08T02:06:26.971Z,7.60
2023-05-08T02:08:54.816Z,7.63
2023-05-08T02:11:24.824Z,7.85
2023-05-08T02:13:52.078Z,7.38
2023-05-08T02:16:20.801Z,7.30
2023-05-08T02:18:52.457Z,6.75
2023-05-08T02:21:20.647Z,7.68
2023-05-08T02:23:48.706Z,6.68
2023-05-08T02:26:16.360Z,6.63
2023-05-08T02:28:43.797Z,6.90
2023-05-08T02:31:12.390Z,6.90
2023-05-08T02:33:42.158Z,7.30
2023-05-08T02:36:10.543Z,6.55
2023-05-08T02:38:39.773Z,6.60
2023-05-08T02:41:06.895Z,6.75
2023-05-08T02:43:33.667Z,6.18
2023-05-08T02:46:12.390Z,7.70
2023-05-08T02:48:48.657Z,6.72
2023-05-08T02:51:44.400Z,6.38
2023-05-08T02:54:32.050Z,6.90
2023-05-08T02:57:00.540Z,6.72
2023-05-08T02:59:55.388Z,6.78
2023-05-08T03:02:24.974Z,6.93
2023-05-08T03:04:56.192Z,7.40
2023-05-08T03:07:25.926Z,7.10
2023-05-08T03:10:00.333Z,7.07
2023-05-08T03:12:28.997Z,6.90
2023-05-08T03:15:03.964Z,6.32
2023-05-08T03:17:33.508Z,6.45
2023-05-08T03:20:05.933Z,6.65
2023-05-08T03:22:35.496Z,6.85
2023-05-08T03:25:05.314Z,7.40
2023-05-08T03:27:33.276Z,7.70
2023-05-08T03:30:01.732Z,6.95
2023-05-08T03:32:29.911Z,7.68
2023-05-08T03:34:59.386Z,9.52
2023-05-08T03:37:28.849Z,9.27
2023-05-08T03:39:56.731Z,10.50
2023-05-08T03:42:27.361Z,10.32
2023-05-08T03:44:54.505Z,10.10
2023-05-08T03:47:22.064Z,10.52
2023-05-08T03:49:50.188Z,10.98
2023-05-08T03:52:17.164Z,10.13
2023-05-08T03:54:44.299Z,9.48
2023-05-08T03:57:11.206Z,10.88
2023-05-08T04:00:14.833Z,13.73
2023-05-08T04:02:47.773Z,15.77
2023-05-08T04:05:32.004Z,17.00
2023-05-08T04:08:34.378Z,18.20
2023-05-08T04:11:18.092Z,17.38
2023-05-08T04:13:54.528Z,16.05
2023-05-08T04:16:28.395Z,14.98
2023-05-08T04:19:01.336Z,15.82
2023-05-08T04:21:31.689Z,18.30
2023-05-08T04:24:00.643Z,18.02
2023-05-08T04:26:28.149Z,21.98
2023-05-08T04:28:55.484Z,16.85
2023-05-08T04:31:23.205Z,24.83
2023-05-08T04:33:50.224Z,22.23
2023-05-08T04:36:16.901Z,32.45
2023-05-08T04:38:44.079Z,27.10
2023-05-08T04:41:10.863Z,28.10
2023-05-08T04:43:37.829Z,22.38
2023-05-08T04:46:06.332Z,33.85
2023-05-08T04:48:33.909Z,25.60
2023-05-08T04:51:01.070Z,24.67
2023-05-08T04:53:27.884Z,30.67
2023-05-08T04:55:54.595Z,42.20
2023-05-08T04:58:21.248Z,31.00
2023-05-08T05:00:48.830Z,41.78
2023-05-08T05:03:15.710Z,24.55
2023-05-08T05:05:42.640Z,26.83
2023-05-08T05:08:09.410Z,33.40
2023-05-08T05:10:37.811Z,26.27
2023-05-08T05:13:04.579Z,35.95
2023-05-08T05:15:31.275Z,29.67
2023-05-08T05:17:57.956Z,30.17
2023-05-08T05:20:24.736Z,33.03
2023-05-08T05:22:51.401Z,38.55
2023-05-08T05:25:18.130Z,19.27
2023-05-08T05:27:44.781Z,20.95
2023-05-08T05:30:12.551Z,26.92
2023-05-08T05:32:39.641Z,21.85
2023-05-08T05:35:07.019Z,27.55
2023-05-08T05:37:33.732Z,21.45
2023-05-08T05:40:00.544Z,18.52
2023-05-08T05:42:27.193Z,18.02
2023-05-08T05:44:53.952Z,17.17
2023-05-08T05:47:20.607Z,19.95
2023-05-08T05:49:47.324Z,19.13
2023-05-08T05:52:14.605Z,20.33
2023-05-08T05:54:44.305Z,16.90
2023-05-08T05:57:10.987Z,16.63
2023-05-08T05:59:41.148Z,16.15
2023-05-08T06:02:10.307Z,16.30
2023-05-08T06:04:37.258Z,18.90
2023-05-08T06:07:04.145Z,21.20
2023-05-08T06:09:30.891Z,16.27
2023-05-08T06:11:57.589Z,23.52
2023-05-08T06:14:24.528Z,21.75
2023-05-08T06:16:51.448Z,21.10
2023-05-08T06:19:18.205Z,22.40
2023-05-08T06:21:44.908Z,19.02
2023-05-08T06:24:11.692Z,19.27
2023-05-08T06:26:38.434Z,16.33
2023-05-08T06:29:05.088Z,18.23
2023-05-08T06:31:31.768Z,17.25
2023-05-08T06:33:58.602Z,15.95
2023-05-08T06:36:25.303Z,17.90
2023-05-08T06:38:52.029Z,18.83
2023-05-08T06:41:18.698Z,21.30
2023-05-08T06:43:45.312Z,17.98
2023-05-08T06:46:12.093Z,18.38
2023-05-08T06:48:38.758Z,18.45
2023-05-08T06:51:05.496Z,19.33
2023-05-08T06:53:32.187Z,18.00
2023-05-08T06:55:58.946Z,20.65
2023-05-08T06:58:25.792Z,18.40
2023-05-08T07:00:52.644Z,18.23
2023-05-08T07:03:19.352Z,17.48
2023-05-08T07:05:46.027Z,17.75
2023-05-08T07:08:12.733Z,18.23
2023-05-08T07:10:39.505Z,17.77
2023-05-08T07:13:06.216Z,19.00
2023-05-08T07:15:32.897Z,17.42
2023-05-08T07:17:59.636Z,16.45
2023-05-08T07:20:26.800Z,13.57
2023-05-08T07:22:53.598Z,13.73
2023-05-08T07:25:20.462Z,14.18
2023-05-08T07:27:47.458Z,15.85
2023-05-08T07:30:14.634Z,15.05
2023-05-08T07:32:41.342Z,16.08
2023-05-08T07:35:11.027Z,16.20
2023-05-08T07:37:38.911Z,16.05
2023-05-08T07:40:06.173Z,16.58
2023-05-08T07:42:42.063Z,17.90
2023-05-08T07:45:13.690Z,17.60
2023-05-08T07:47:50.410Z,17.00
2023-05-08T07:50:17.475Z,16.90
2023-05-08T07:52:44.233Z,26.27
2023-05-08T07:55:11.263Z,18.65
2023-05-08T07:57:39.252Z,17.40
2023-05-08T08:00:07.329Z,18.75
2023-05-08T08:02:34.416Z,16.27
2023-05-08T08:05:01.208Z,17.88
2023-05-08T08:07:28.120Z,17.30
2023-05-08T08:09:55.660Z,18.23
2023-05-08T08:12:23.748Z,17.58
2023-05-08T08:14:50.446Z,16.65
2023-05-08T08:17:17.627Z,14.93
2023-05-08T08:19:44.524Z,13.95
2023-05-08T08:22:11.223Z,15.20
2023-05-08T08:24:37.866Z,16.00
2023-05-08T08:27:04.552Z,15.30
2023-05-08T08:29:31.416Z,15.75
2023-05-08T08:31:58.130Z,15.63
2023-05-08T08:34:25.008Z,15.52
2023-05-08T08:36:51.834Z,14.50
2023-05-08T08:39:18.442Z,14.95
2023-05-08T08:41:45.225Z,14.15
2023-05-08T08:44:11.963Z,14.02
2023-05-08T08:46:51.179Z,13.57
2023-05-08T08:49:20.192Z,12.38
2023-05-08T08:51:52.259Z,12.50
2023-05-08T08:56:52.056Z,11.95
2023-05-08T08:59:19.269Z,12.32
2023-05-08T09:01:50.239Z,12.13
2023-05-08T09:04:18.132Z,11.95
2023-05-08T09:06:45.934Z,11.52
2023-05-08T09:09:13.680Z,10.80
2023-05-08T09:11:43.529Z,12.88
2023-05-08T09:14:10.161Z,12.00
2023-05-08T09:16:37.007Z,12.20
2023-05-08T09:19:04.787Z,11.38
2023-05-08T09:21:32.384Z,11.95
2023-05-08T09:24:04.491Z,10.65
2023-05-08T09:26:34.320Z,11.38
2023-05-08T09:29:17.220Z,11.27
2023-05-08T09:31:46.936Z,10.20
2023-05-08T09:34:28.947Z,10.60
2023-05-08T09:36:56.925Z,10.35
2023-05-08T09:39:25.115Z,10.63
2023-05-08T09:42:03.315Z,11.85
2023-05-08T09:44:44.269Z,9.80
2023-05-08T09:47:15.706Z,10.13
2023-05-08T09:50:02.270Z,10.35
2023-05-08T09:52:30.313Z,10.88
2023-05-08T09:55:01.966Z,8.20
2023-05-08T09:57:31.561Z,8.68
2023-05-08T10:00:03.169Z,9.23
2023-05-08T10:02:30.124Z,9.00
2023-05-08T10:04:57.742Z,9.52
2023-05-08T10:07:35.687Z,8.65
2023-05-08T10:10:04.538Z,8.52
2023-05-08T10:12:31.917Z,9.45
2023-05-08T10:14:59.197Z,12.02
2023-05-08T10:17:30.116Z,8.60
2023-05-08T10:20:06.078Z,8.82
2023-05-08T10:22:36.035Z,7.38
2023-05-08T10:25:03.468Z,8.27
2023-05-08T10:27:41.463Z,8.55
2023-05-08T10:30:10.024Z,8.05
2023-05-08T10:32:43.887Z,8.40
2023-05-08T10:35:12.108Z,8.10
2023-05-08T10:37:42.197Z,8.48
2023-05-08T10:40:11.017Z,8.60
2023-05-08T10:42:38.911Z,7.35
2023-05-08T10:45:06.624Z,7.57
2023-05-08T10:47:52.346Z,7.45
2023-05-08T10:50:45.850Z,7.18
2023-05-08T10:53:37.164Z,6.45
2023-05-08T10:56:04.298Z,6.70
2023-05-08T10:58:35.805Z,6.88
2023-05-08T11:01:08.476Z,6.80
2023-05-08T11:03:44.502Z,6.60
2023-05-08T11:06:11.983Z,6.88
2023-05-08T11:09:05.047Z,6.28
2023-05-08T11:11:38.145Z,5.93
2023-05-08T11:14:07.953Z,6.65
2023-05-08T11:17:04.833Z,5.35
2023-05-08T11:19:31.688Z,4.88
2023-05-08T11:22:24.868Z,4.90
2023-05-08T11:25:00.052Z,4.72
2023-05-08T11:27:38.765Z,4.10
2023-05-08T11:30:33.068Z,3.53
2023-05-08T11:33:15.821Z,3.72
2023-05-08T11:36:11.899Z,3.33
2023-05-08T11:38:38.848Z,3.03
2023-05-08T11:41:26.234Z,3.20
2023-05-08T11:44:26.566Z,3.33
2023-05-08T11:46:54.777Z,2.63
2023-05-08T11:49:29.355Z,2.90
2023-05-08T11:51:59.188Z,3.70
2023-05-08T11:54:29.162Z,3.03
2023-05-08T11:56:56.210Z,2.88
2023-05-08T11:59:23.142Z,2.40
2023-05-08T12:02:06.754Z,2.33
2023-05-08T12:04:44.349Z,2.05
2023-05-08T12:07:11.720Z,1.65
2023-05-08T12:09:38.615Z,2.08
2023-05-08T12:12:05.493Z,2.28
2023-05-08T12:14:34.571Z,1.90
2023-05-08T12:17:02.746Z,1.90
2023-05-08T12:19:29.577Z,1.90
2023-05-08T12:21:57.440Z,2.45
2023-05-08T12:24:26.130Z,2.00
2023-05-08T12:26:58.707Z,2.20
2023-05-08T12:29:28.076Z,4.68
2023-05-08T12:31:55.121Z,2.03
2023-05-08T12:34:22.382Z,2.40
2023-05-08T12:36:49.288Z,2.70
2023-05-08T12:39:17.979Z,3.70
2023-05-08T12:41:52.100Z,1.80
2023-05-08T12:44:19.834Z,1.90
2023-05-08T12:46:49.389Z,1.88
2023-05-08T12:49:26.815Z,2.00
2023-05-08T12:52:01.751Z,2.20
2023-05-08T12:54:36.747Z,2.20
2023-05-08T12:57:15.162Z,2.17
2023-05-08T12:59:42.424Z,2.58
2023-05-08T13:02:16.328Z,4.15
2023-05-08T13:04:44.040Z,2.75
2023-05-08T13:07:11.589Z,3.13
2023-05-08T13:09:39.229Z,2.60
2023-05-08T13:12:09.495Z,2.95
2023-05-08T13:14:36.194Z,3.67
2023-05-08T13:17:03.006Z,4.60
2023-05-08T13:19:29.747Z,9.48
2023-05-08T13:21:56.528Z,7.57
2023-05-08T13:24:23.160Z,7.88
2023-05-08T13:26:49.842Z,6.35
2023-05-08T13:29:17.102Z,6.25
2023-05-08T13:31:43.787Z,6.15
2023-05-08T13:34:10.496Z,6.07
2023-05-08T13:36:37.259Z,6.38
2023-05-08T13:39:04.058Z,7.25
2023-05-08T13:41:30.678Z,7.50
2023-05-08T13:43:57.566Z,8.55
2023-05-08T13:46:25.104Z,8.68
2023-05-08T13:48:51.811Z,9.93
2023-05-08T13:51:18.457Z,10.75
2023-05-08T13:53:45.265Z,11.70
2023-05-08T13:56:11.978Z,11.82
2023-05-08T13:58:38.811Z,10.93
2023-05-08T14:01:21.977Z,11.82
2023-05-08T14:03:52.421Z,13.60
2023-05-08T14:06:20.443Z,13.63
2023-05-08T14:08:50.426Z,12.38
2023-05-08T14:11:18.375Z,11.60
2023-05-08T14:13:45.021Z,11.82
2023-05-08T14:16:12.918Z,12.52
2023-05-08T14:18:40.242Z,12.48
2023-05-08T14:21:07.133Z,11.60
2023-05-08T14:23:35.556Z,12.45
2023-05-08T14:26:02.306Z,11.10
2023-05-08T14:28:29.012Z,12.10
2023-05-08T14:30:56.151Z,12.05
2023-05-08T14:33:22.949Z,11.90
2023-05-08T14:35:49.611Z,12.75
2023-05-08T14:38:16.363Z,12.65
2023-05-08T14:40:43.053Z,12.98
2023-05-08T14:43:10.010Z,13.32
2023-05-08T14:45:36.814Z,13.38
2023-05-08T14:48:03.631Z,15.15
2023-05-08T14:50:30.520Z,15.45
2023-05-08T14:52:57.333Z,15.75
2023-05-08T14:55:24.419Z,14.82
2023-05-08T14:57:51.224Z,16.30
2023-05-08T15:00:18.471Z,15.23
2023-05-08T15:02:45.400Z,15.18
2023-05-08T15:05:19.103Z,13.27
2023-05-08T15:07:46.329Z,13.68
2023-05-08T15:10:13.053Z,14.88
2023-05-08T15:12:39.848Z,14.02
2023-05-08T15:15:07.006Z,14.23
2023-05-08T15:17:36.447Z,14.15
2023-05-08T15:20:04.053Z,13.57
2023-05-08T15:22:30.935Z,12.85
2023-05-08T15:25:02.356Z,13.45
2023-05-08T15:27:29.920Z,12.25
2023-05-08T15:29:56.698Z,12.45
2023-05-08T15:32:23.499Z,13.88
2023-05-08T15:34:50.358Z,12.38
2023-05-08T15:37:17.121Z,12.13
2023-05-08T15:39:43.803Z,12.55
2023-05-08T15:42:10.489Z,12.50
2023-05-08T15:44:53.801Z,12.38
2023-05-08T15:47:23.170Z,11.90
2023-05-08T15:49:50.885Z,13.02
2023-05-08T15:52:19.512Z,12.98
2023-05-08T15:54:46.838Z,13.40
2023-05-08T15:57:13.855Z,13.32
2023-05-08T15:59:40.597Z,13.93
2023-05-08T16:02:08.077Z,13.85
2023-05-08T16:04:35.714Z,13.18
2023-05-08T16:07:02.657Z,14.60
2023-05-08T16:09:29.306Z,13.57
2023-05-08T16:11:55.973Z,14.10
2023-05-08T16:14:22.674Z,13.77
2023-05-08T16:16:49.345Z,13.75
2023-05-08T16:19:16.063Z,14.60
2023-05-08T16:21:45.220Z,12.25
2023-05-08T16:24:11.929Z,12.52
2023-05-08T16:26:38.545Z,13.07
2023-05-08T16:29:05.368Z,11.05
2023-05-08T16:31:32.149Z,11.63
2023-05-08T16:33:58.975Z,11.85
2023-05-08T16:36:26.696Z,12.27
2023-05-08T16:38:53.422Z,13.00
2023-05-08T16:41:22.136Z,11.95
2023-05-08T16:43:48.916Z,12.50
2023-05-08T16:46:16.378Z,13.25
2023-05-08T16:48:44.512Z,13.65
2023-05-08T16:51:11.188Z,12.90
2023-05-08T16:53:37.847Z,13.52
2023-05-08T16:56:04.679Z,14.43
2023-05-08T16:58:31.305Z,14.90
2023-05-08T17:00:58.099Z,14.18
2023-05-08T17:03:25.063Z,13.95
2023-05-08T17:05:51.927Z,15.15
2023-05-08T17:08:18.642Z,14.50
2023-05-08T17:10:45.290Z,13.85
2023-05-08T17:13:11.987Z,15.35
2023-05-08T17:15:38.744Z,15.00
2023-05-08T17:18:05.647Z,16.35
2023-05-08T17:20:35.421Z,16.80
2023-05-08T17:23:02.097Z,16.55
2023-05-08T17:25:28.856Z,15.68
2023-05-08T17:27:55.990Z,16.83
2023-05-08T17:30:22.772Z,16.80
2023-05-08T17:32:51.597Z,17.20
2023-05-08T17:35:18.984Z,16.42
2023-05-08T17:37:46.074Z,16.90
2023-05-08T17:40:13.113Z,16.92
2023-05-08T17:42:39.908Z,17.23
2023-05-08T17:45:07.319Z,17.70
2023-05-08T17:47:34.029Z,18.45
2023-05-08T17:50:01.008Z,18.25
2023-05-08T17:52:27.664Z,18.42
2023-05-08T17:54:54.310Z,18.20
2023-05-08T17:57:20.957Z,19.35
2023-05-08T17:59:47.642Z,19.55
2023-05-08T18:02:14.252Z,19.80
2023-05-08T18:04:41.141Z,20.63
2023-05-08T18:07:07.830Z,19.77
2023-05-08T18:09:34.537Z,20.45
2023-05-08T18:12:02.591Z,20.02
2023-05-08T18:14:33.484Z,21.02
2023-05-08T18:17:00.774Z,21.58
2023-05-08T18:19:27.540Z,21.40
2023-05-08T18:21:54.323Z,22.13
2023-05-08T18:24:21.013Z,23.08
2023-05-08T18:26:48.259Z,23.90
2023-05-08T18:29:15.544Z,22.77
2023-05-08T18:31:42.307Z,23.23
2023-05-08T18:34:09.017Z,23.80
2023-05-08T18:36:35.674Z,24.55
2023-05-08T18:39:02.602Z,24.15
2023-05-08T18:41:29.343Z,24.98
2023-05-08T18:43:56.367Z,24.85
2023-05-08T18:46:23.029Z,26.58
2023-05-08T18:48:49.800Z,24.58
2023-05-08T18:51:16.526Z,24.42
2023-05-08T18:53:43.158Z,23.92
2023-05-08T18:56:11.501Z,26.92
2023-05-08T18:58:38.602Z,25.55
2023-05-08T19:01:09.122Z,26.02
2023-05-08T19:03:35.866Z,26.23
2023-05-08T19:06:02.626Z,24.95
2023-05-08T19:08:29.277Z,26.27
2023-05-08T19:10:55.966Z,26.48
2023-05-08T19:13:22.774Z,24.60
2023-05-08T19:15:49.584Z,26.05
2023-05-08T19:18:17.036Z,27.23
2023-05-08T19:20:43.646Z,28.40
2023-05-08T19:23:10.490Z,27.33
2023-05-08T19:25:37.284Z,29.55
2023-05-08T19:28:04.628Z,26.85
2023-05-08T19:30:31.465Z,28.23
2023-05-08T19:32:58.111Z,30.45
2023-05-08T19:35:24.972Z,30.52
2023-05-08T19:37:51.729Z,29.95
2023-05-08T19:40:18.527Z,32.45
2023-05-08T19:42:45.752Z,32.20
2023-05-08T19:45:12.844Z,30.95
2023-05-08T19:47:39.549Z,30.25
2023-05-08T19:50:07.328Z,30.85
2023-05-08T19:52:34.291Z,30.20
2023-05-08T19:55:01.013Z,28.75
2023-05-08T19:57:27.633Z,30.15
2023-05-08T19:59:54.396Z,31.65
2023-05-08T20:02:21.481Z,30.02
2023-05-08T20:05:14.345Z,30.35
2023-05-08T20:07:34.829Z,30.42
2023-05-08T20:10:01.465Z,29.80
2023-05-08T20:12:28.160Z,28.80
2023-05-08T20:14:54.850Z,26.83
2023-05-08T20:17:21.577Z,27.00
2023-05-08T20:19:48.493Z,27.08
2023-05-08T20:22:15.207Z,26.23
2023-05-08T20:24:41.846Z,23.92
2023-05-08T20:27:08.516Z,26.05
2023-05-08T20:29:35.300Z,25.90
2023-05-08T20:32:02.320Z,24.02
2023-05-08T20:34:29.810Z,23.55
2023-05-08T20:36:59.055Z,23.33
2023-05-08T20:39:25.704Z,22.10
2023-05-08T20:41:52.516Z,22.17
2023-05-08T20:44:19.288Z,21.40
2023-05-08T20:46:45.996Z,20.15
2023-05-08T20:49:12.840Z,18.52
2023-05-08T20:51:39.549Z,18.55
2023-05-08T20:54:06.291Z,18.52
2023-05-08T20:56:35.715Z,20.02
2023-05-08T20:59:03.034Z,17.15
2023-05-08T21:01:29.812Z,14.80
2023-05-08T21:03:56.541Z,14.50
2023-05-08T21:06:23.231Z,15.30
2023-05-08T21:08:50.252Z,13.68
2023-05-08T21:11:17.067Z,14.10
2023-05-08T21:13:44.443Z,14.63
2023-05-08T21:16:11.663Z,14.68
2023-05-08T21:18:38.397Z,14.77
2023-05-08T21:21:13.600Z,14.85
2023-05-08T21:23:40.350Z,15.02
2023-05-08T21:26:07.021Z,14.75
2023-05-08T21:28:34.234Z,14.60
2023-05-08T21:31:01.074Z,14.88
2023-05-08T21:33:27.871Z,14.35
2023-05-08T21:35:54.525Z,15.18
2023-05-08T21:38:21.143Z,15.07
2023-05-08T21:40:47.820Z,14.80
2023-05-08T21:43:14.503Z,15.32
2023-05-08T21:45:41.167Z,15.32
2023-05-08T21:48:07.844Z,16.35
2023-05-08T21:50:34.491Z,15.20
2023-05-08T21:53:01.376Z,14.57
2023-05-08T21:55:29.833Z,14.63
2023-05-08T21:57:57.657Z,15.25
2023-05-08T22:00:24.335Z,14.68
2023-05-08T22:02:51.074Z,14.80
2023-05-08T22:05:17.696Z,15.02
2023-05-08T22:07:44.371Z,14.50
2023-05-08T22:10:11.652Z,15.13
2023-05-08T22:12:38.400Z,14.82
2023-05-08T22:15:09.492Z,14.40
2023-05-08T22:17:41.742Z,13.82
2023-05-08T22:20:10.898Z,14.32
2023-05-08T22:22:37.562Z,14.05
2023-05-08T22:25:04.561Z,13.25
2023-05-08T22:27:31.183Z,14.18
2023-05-08T22:30:00.231Z,13.52
2023-05-08T22:32:27.954Z,13.40
2023-05-08T22:34:55.581Z,14.70
2023-05-08T22:37:22.706Z,18.85
2023-05-08T22:39:49.775Z,17.52
2023-05-08T22:42:16.726Z,16.58
2023-05-08T22:44:43.989Z,14.90
2023-05-08T22:47:11.887Z,13.93
2023-05-08T22:49:41.213Z,13.63
2023-05-08T22:52:08.823Z,12.43
2023-05-08T22:54:36.065Z,11.98
2023-05-08T22:57:02.916Z,12.00
2023-05-08T22:59:29.639Z,10.80
2023-05-08T23:01:56.296Z,11.25
2023-05-08T23:04:23.068Z,12.05
2023-05-08T23:06:49.808Z,12.40
2023-05-08T23:09:16.472Z,13.10
2023-05-08T23:11:43.285Z,12.73
2023-05-08T23:14:09.958Z,14.10
2023-05-08T23:16:36.729Z,14.68
2023-05-08T23:19:04.549Z,14.45
2023-05-08T23:21:32.044Z,14.25
2023-05-08T23:23:58.960Z,13.52
2023-05-08T23:26:26.107Z,13.40
2023-05-08T23:28:52.848Z,13.70
2023-05-08T23:31:19.580Z,14.25
2023-05-08T23:33:46.286Z,13.13
2023-05-08T23:36:12.959Z,13.15
2023-05-08T23:38:39.598Z,13.93
2023-05-08T23:41:06.243Z,13.65
2023-05-08T23:43:33.257Z,12.85
2023-05-08T23:45:59.967Z,12.45
2023-05-08T23:48:26.905Z,12.35
2023-05-08T23:50:53.666Z,11.75
2023-05-08T23:53:20.691Z,11.90
2023-05-08T23:55:50.720Z,11.63
2023-05-08T23:58:18.293Z,11.18
